sensor_id;sensor_type;location;lat;lon;timestamp;pressure;altitude;pressure_sealevel;temperature;humidity
7333;BME280;3707;43.618;25.342;2023-02-12T00:01:38;101179.66;;;1.79;90.51
7333;BME280;3707;43.618;25.342;2023-02-12T00:04:04;101183.41;;;1.84;90.13
7333;BME280;3707;43.618;25.342;2023-02-12T00:06:31;101174.84;;;1.83;90.73
7333;BME280;3707;43.618;25.342;2023-02-12T00:08:58;101184.47;;;1.74;91.30
7333;BME280;3707;43.618;25.342;2023-02-12T00:11:26;101187.31;;;1.79;91.25
7333;BME280;3707;43.618;25.342;2023-02-12T00:13:54;101140.44;;;1.54;91.75
7333;BME280;3707;43.618;25.342;2023-02-12T00:16:24;101182.88;;;1.76;91.95
7333;BME280;3707;43.618;25.342;2023-02-12T00:18:52;101183.91;;;1.78;92.15
7333;BME280;3707;43.618;25.342;2023-02-12T00:21:19;101178.84;;;1.67;92.48
7333;BME280;3707;43.618;25.342;2023-02-12T00:23:46;101182.38;;;1.69;92.49
7333;BME280;3707;43.618;25.342;2023-02-12T00:26:15;101180.13;;;1.73;93.09
7333;BME280;3707;43.618;25.342;2023-02-12T00:28:42;101171.16;;;1.67;93.84
7333;BME280;3707;43.618;25.342;2023-02-12T00:31:12;101170.03;;;1.75;93.86
7333;BME280;3707;43.618;25.342;2023-02-12T00:33:41;101077.44;;;1.16;93.56
7333;BME280;3707;43.618;25.342;2023-02-12T00:36:09;101167.22;;;1.72;94.37
7333;BME280;3707;43.618;25.342;2023-02-12T00:38:38;101143.63;;;1.63;94.67
7333;BME280;3707;43.618;25.342;2023-02-12T00:41:05;101155.25;;;1.71;94.80
7333;BME280;3707;43.618;25.342;2023-02-12T00:43:32;101155.91;;;1.68;95.50
7333;BME280;3707;43.618;25.342;2023-02-12T00:45:59;101137.09;;;1.55;96.06
7333;BME280;3707;43.618;25.342;2023-02-12T00:48:26;101151.63;;;1.67;96.22
7333;BME280;3707;43.618;25.342;2023-02-12T00:50:54;101147.34;;;1.68;97.00
7333;BME280;3707;43.618;25.342;2023-02-12T00:53:21;101145.22;;;1.74;96.63
7333;BME280;3707;43.618;25.342;2023-02-12T00:55:48;101128.16;;;1.61;97.73
7333;BME280;3707;43.618;25.342;2023-02-12T00:58:14;101146.38;;;1.66;97.36
7333;BME280;3707;43.618;25.342;2023-02-12T01:00:42;101155.41;;;1.61;98.40
7333;BME280;3707;43.618;25.342;2023-02-12T01:03:09;101140.94;;;1.61;98.53
7333;BME280;3707;43.618;25.342;2023-02-12T01:05:36;101136.72;;;1.62;98.44
7333;BME280;3707;43.618;25.342;2023-02-12T01:08:05;101135.38;;;1.67;98.97
7333;BME280;3707;43.618;25.342;2023-02-12T01:10:32;101123.19;;;1.63;98.94
7333;BME280;3707;43.618;25.342;2023-02-12T01:12:59;101104.66;;;1.54;99.42
7333;BME280;3707;43.618;25.342;2023-02-12T01:15:26;101113.34;;;1.69;98.34
7333;BME280;3707;43.618;25.342;2023-02-12T01:17:53;101118.47;;;1.69;98.97
7333;BME280;3707;43.618;25.342;2023-02-12T01:20:21;101124.00;;;1.75;98.56
7333;BME280;3707;43.618;25.342;2023-02-12T01:22:49;101095.84;;;1.62;98.55
7333;BME280;3707;43.618;25.342;2023-02-12T01:25:17;101115.72;;;1.79;98.75
7333;BME280;3707;43.618;25.342;2023-02-12T01:27:44;101127.28;;;1.85;97.94
7333;BME280;3707;43.618;25.342;2023-02-12T01:30:12;101113.09;;;1.77;97.51
7333;BME280;3707;43.618;25.342;2023-02-12T01:32:40;101094.81;;;1.84;96.31
7333;BME280;3707;43.618;25.342;2023-02-12T01:35:08;101115.09;;;2.08;96.35
7333;BME280;3707;43.618;25.342;2023-02-12T01:37:36;101089.81;;;1.99;95.91
7333;BME280;3707;43.618;25.342;2023-02-12T01:40:06;101087.44;;;2.15;95.45
7333;BME280;3707;43.618;25.342;2023-02-12T01:42:34;101107.91;;;2.15;95.35
7333;BME280;3707;43.618;25.342;2023-02-12T01:48:11;101095.69;;;2.11;95.21
7333;BME280;3707;43.618;25.342;2023-02-12T01:50:40;101107.44;;;2.21;95.37
7333;BME280;3707;43.618;25.342;2023-02-12T01:53:08;101111.06;;;2.24;94.03
7333;BME280;3707;43.618;25.342;2023-02-12T01:55:35;101104.56;;;2.29;94.25
7333;BME280;3707;43.618;25.342;2023-02-12T01:58:03;101103.97;;;2.33;93.82
7333;BME280;3707;43.618;25.342;2023-02-12T02:00:31;101121.00;;;2.33;93.48
7333;BME280;3707;43.618;25.342;2023-02-12T02:02:59;101024.91;;;1.71;93.75
7333;BME280;3707;43.618;25.342;2023-02-12T02:05:31;101112.34;;;2.44;93.35
7333;BME280;3707;43.618;25.342;2023-02-12T02:08:00;101094.63;;;2.34;92.40
7333;BME280;3707;43.618;25.342;2023-02-12T02:10:28;101117.38;;;2.42;91.63
7333;BME280;3707;43.618;25.342;2023-02-12T02:12:55;101115.00;;;2.45;90.78
7333;BME280;3707;43.618;25.342;2023-02-12T02:15:45;101077.31;;;2.30;90.98
7333;BME280;3707;43.618;25.342;2023-02-12T02:18:17;101100.81;;;2.37;91.10
7333;BME280;3707;43.618;25.342;2023-02-12T02:24:14;101116.75;;;2.46;91.10
7333;BME280;3707;43.618;25.342;2023-02-12T02:27:04;101123.66;;;2.47;90.44
7333;BME280;3707;43.618;25.342;2023-02-12T02:29:43;101131.72;;;2.40;90.51
7333;BME280;3707;43.618;25.342;2023-02-12T02:32:16;101130.16;;;2.42;89.61
7333;BME280;3707;43.618;25.342;2023-02-12T02:34:49;101094.91;;;2.25;89.45
7333;BME280;3707;43.618;25.342;2023-02-12T02:37:24;101131.53;;;2.37;89.66
7333;BME280;3707;43.618;25.342;2023-02-12T02:39:54;101117.84;;;2.24;89.17
7333;BME280;3707;43.618;25.342;2023-02-12T02:42:28;101127.50;;;2.41;88.73
7333;BME280;3707;43.618;25.342;2023-02-12T02:45:01;101124.94;;;2.41;88.26
7333;BME280;3707;43.618;25.342;2023-02-12T02:47:36;101138.63;;;2.41;88.00
7333;BME280;3707;43.618;25.342;2023-02-12T02:50:08;101146.88;;;2.37;88.16
7333;BME280;3707;43.618;25.342;2023-02-12T02:52:41;101141.78;;;2.37;88.87
7333;BME280;3707;43.618;25.342;2023-02-12T02:55:10;101143.94;;;2.31;88.75
7333;BME280;3707;43.618;25.342;2023-02-12T02:57:43;101143.56;;;2.38;88.47
7333;BME280;3707;43.618;25.342;2023-02-12T03:00:14;101148.25;;;2.32;88.62
7333;BME280;3707;43.618;25.342;2023-02-12T03:02:48;101144.13;;;2.34;88.95
7333;BME280;3707;43.618;25.342;2023-02-12T03:05:21;101155.72;;;2.29;88.97
7333;BME280;3707;43.618;25.342;2023-02-12T03:07:55;101131.81;;;2.16;89.01
7333;BME280;3707;43.618;25.342;2023-02-12T03:10:28;101141.09;;;2.27;89.50
7333;BME280;3707;43.618;25.342;2023-02-12T03:13:01;101140.69;;;2.21;89.51
7333;BME280;3707;43.618;25.342;2023-02-12T03:15:32;101147.09;;;2.40;89.12
7333;BME280;3707;43.618;25.342;2023-02-12T03:18:04;101105.72;;;2.21;87.85
7333;BME280;3707;43.618;25.342;2023-02-12T03:20:36;101139.31;;;2.39;87.98
7333;BME280;3707;43.618;25.342;2023-02-12T03:23:10;101139.31;;;2.39;88.22
7333;BME280;3707;43.618;25.342;2023-02-12T03:25:43;101127.59;;;2.42;87.78
7333;BME280;3707;43.618;25.342;2023-02-12T03:28:15;101139.50;;;2.42;87.89
7333;BME280;3707;43.618;25.342;2023-02-12T03:30:52;101138.44;;;2.38;88.50
7333;BME280;3707;43.618;25.342;2023-02-12T03:33:28;101058.13;;;1.97;88.60
7333;BME280;3707;43.618;25.342;2023-02-12T03:36:02;101143.44;;;2.50;88.74
7333;BME280;3707;43.618;25.342;2023-02-12T03:38:35;101144.63;;;2.55;88.60
7333;BME280;3707;43.618;25.342;2023-02-12T03:41:05;101157.03;;;2.49;88.59
7333;BME280;3707;43.618;25.342;2023-02-12T03:43:42;101154.47;;;2.49;89.61
7333;BME280;3707;43.618;25.342;2023-02-12T03:46:19;101166.78;;;2.41;89.86
7333;BME280;3707;43.618;25.342;2023-02-12T03:48:57;101163.63;;;2.45;90.02
7333;BME280;3707;43.618;25.342;2023-02-12T03:51:29;101159.47;;;2.47;90.92
7333;BME280;3707;43.618;25.342;2023-02-12T03:54:00;101167.75;;;2.43;91.57
7333;BME280;3707;43.618;25.342;2023-02-12T03:56:31;101155.47;;;2.38;92.15
7333;BME280;3707;43.618;25.342;2023-02-12T03:58:59;101165.38;;;2.33;92.60
7333;BME280;3707;43.618;25.342;2023-02-12T04:01:26;101152.00;;;2.37;92.52
7333;BME280;3707;43.618;25.342;2023-02-12T04:03:56;101170.41;;;2.32;93.22
7333;BME280;3707;43.618;25.342;2023-02-12T04:06:26;101142.63;;;2.12;94.84
7333;BME280;3707;43.618;25.342;2023-02-12T04:08:57;101142.84;;;2.15;95.65
7333;BME280;3707;43.618;25.342;2023-02-12T04:11:29;101181.91;;;2.25;96.23
7333;BME280;3707;43.618;25.342;2023-02-12T04:14:09;101147.66;;;2.23;96.73
7333;BME280;3707;43.618;25.342;2023-02-12T04:16:43;101181.13;;;2.26;97.08
7333;BME280;3707;43.618;25.342;2023-02-12T04:19:17;101181.91;;;2.25;98.53
7333;BME280;3707;43.618;25.342;2023-02-12T04:21:54;101193.91;;;2.26;98.97
7333;BME280;3707;43.618;25.342;2023-02-12T04:24:33;101210.66;;;2.34;98.85
7333;BME280;3707;43.618;25.342;2023-02-12T04:27:09;101211.44;;;2.33;98.97
7333;BME280;3707;43.618;25.342;2023-02-12T04:29:44;101205.56;;;2.34;99.33
7333;BME280;3707;43.618;25.342;2023-02-12T04:32:16;101217.16;;;2.29;100.00
7333;BME280;3707;43.618;25.342;2023-02-12T04:34:49;101210.63;;;2.21;100.00
7333;BME280;3707;43.618;25.342;2023-02-12T04:37:25;101215.75;;;2.21;100.00
7333;BME280;3707;43.618;25.342;2023-02-12T04:39:55;101181.19;;;2.02;100.00
7333;BME280;3707;43.618;25.342;2023-02-12T04:42:24;101174.06;;;1.84;100.00
7333;BME280;3707;43.618;25.342;2023-02-12T04:44:50;101226.88;;;2.22;100.00
7333;BME280;3707;43.618;25.342;2023-02-12T04:47:17;101235.63;;;2.12;100.00
7333;BME280;3707;43.618;25.342;2023-02-12T04:49:45;101233.16;;;2.14;100.00
7333;BME280;3707;43.618;25.342;2023-02-12T04:52:12;101234.91;;;2.15;100.00
7333;BME280;3707;43.618;25.342;2023-02-12T04:54:39;101213.75;;;2.04;100.00
7333;BME280;3707;43.618;25.342;2023-02-12T04:57:06;101232.06;;;2.10;100.00
7333;BME280;3707;43.618;25.342;2023-02-12T04:59:32;101233.81;;;1.98;100.00
7333;BME280;3707;43.618;25.342;2023-02-12T05:01:59;101236.50;;;2.13;100.00
7333;BME280;3707;43.618;25.342;2023-02-12T05:04:26;101236.59;;;2.14;100.00
7333;BME280;3707;43.618;25.342;2023-02-12T05:06:54;101226.13;;;1.98;100.00
7333;BME280;3707;43.618;25.342;2023-02-12T05:09:21;101239.69;;;1.97;100.00
7333;BME280;3707;43.618;25.342;2023-02-12T05:11:48;101237.97;;;2.09;100.00
7333;BME280;3707;43.618;25.342;2023-02-12T05:14:14;101240.69;;;1.99;100.00
7333;BME280;3707;43.618;25.342;2023-02-12T05:16:41;101247.19;;;2.07;100.00
7333;BME280;3707;43.618;25.342;2023-02-12T05:19:08;101253.50;;;1.99;100.00
7333;BME280;3707;43.618;25.342;2023-02-12T05:21:35;101215.22;;;1.76;100.00
7333;BME280;3707;43.618;25.342;2023-02-12T05:24:04;101257.22;;;2.04;100.00
7333;BME280;3707;43.618;25.342;2023-02-12T05:26:32;101240.22;;;1.80;100.00
7333;BME280;3707;43.618;25.342;2023-02-12T05:28:59;101263.06;;;1.90;100.00
7333;BME280;3707;43.618;25.342;2023-02-12T05:31:26;101271.38;;;1.74;100.00
7333;BME280;3707;43.618;25.342;2023-02-12T05:33:52;101268.91;;;1.76;100.00
7333;BME280;3707;43.618;25.342;2023-02-12T05:36:20;101266.44;;;1.89;100.00
7333;BME280;3707;43.618;25.342;2023-02-12T05:38:48;101268.41;;;1.93;100.00
7333;BME280;3707;43.618;25.342;2023-02-12T05:41:19;101278.63;;;1.93;100.00
7333;BME280;3707;43.618;25.342;2023-02-12T05:43:46;101280.78;;;1.87;100.00
7333;BME280;3707;43.618;25.342;2023-02-12T05:46:13;101287.31;;;1.95;100.00
7333;BME280;3707;43.618;25.342;2023-02-12T05:48:40;101276.03;;;1.80;100.00
7333;BME280;3707;43.618;25.342;2023-02-12T05:51:10;101297.25;;;2.04;100.00
7333;BME280;3707;43.618;25.342;2023-02-12T05:53:38;101283.84;;;1.94;100.00
7333;BME280;3707;43.618;25.342;2023-02-12T05:56:08;101298.78;;;2.13;100.00
7333;BME280;3707;43.618;25.342;2023-02-12T05:58:36;101297.22;;;2.15;100.00
7333;BME280;3707;43.618;25.342;2023-02-12T06:01:09;101291.72;;;2.22;100.00
7333;BME280;3707;43.618;25.342;2023-02-12T06:03:36;101286.38;;;2.06;100.00
7333;BME280;3707;43.618;25.342;2023-02-12T06:06:03;101316.94;;;2.29;100.00
7333;BME280;3707;43.618;25.342;2023-02-12T06:08:30;101319.94;;;2.35;100.00
7333;BME280;3707;43.618;25.342;2023-02-12T06:10:59;101317.56;;;2.38;100.00
7333;BME280;3707;43.618;25.342;2023-02-12T06:13:25;101319.31;;;2.39;100.00
7333;BME280;3707;43.618;25.342;2023-02-12T06:15:54;101321.31;;;2.43;100.00
7333;BME280;3707;43.618;25.342;2023-02-12T06:18:20;101325.03;;;2.35;100.00
7333;BME280;3707;43.618;25.342;2023-02-12T06:20:47;101308.47;;;2.30;100.00
7333;BME280;3707;43.618;25.342;2023-02-12T06:23:14;101314.44;;;2.42;100.00
7333;BME280;3707;43.618;25.342;2023-02-12T06:25:41;101314.47;;;2.56;100.00
7333;BME280;3707;43.618;25.342;2023-02-12T06:28:08;101324.44;;;2.39;100.00
7333;BME280;3707;43.618;25.342;2023-02-12T06:30:34;101333.38;;;2.33;100.00
7333;BME280;3707;43.618;25.342;2023-02-12T06:33:03;101335.16;;;2.34;100.00
7333;BME280;3707;43.618;25.342;2023-02-12T06:35:29;101339.78;;;2.39;100.00
7333;BME280;3707;43.618;25.342;2023-02-12T06:37:56;101356.38;;;2.44;100.00
7333;BME280;3707;43.618;25.342;2023-02-12T06:40:23;101310.47;;;2.34;100.00
7333;BME280;3707;43.618;25.342;2023-02-12T06:42:50;101339.03;;;2.54;100.00
7333;BME280;3707;43.618;25.342;2023-02-12T06:45:17;101350.91;;;2.65;100.00
7333;BME280;3707;43.618;25.342;2023-02-12T06:47:43;101349.34;;;2.80;100.00
7333;BME280;3707;43.618;25.342;2023-02-12T06:50:11;101350.44;;;2.83;100.00
7333;BME280;3707;43.618;25.342;2023-02-12T06:52:38;101361.66;;;2.72;100.00
7333;BME280;3707;43.618;25.342;2023-02-12T06:55:06;101371.06;;;2.85;100.00
7333;BME280;3707;43.618;25.342;2023-02-12T06:57:33;101359.34;;;2.88;100.00
7333;BME280;3707;43.618;25.342;2023-02-12T06:59:59;101377.19;;;3.13;100.00
7333;BME280;3707;43.618;25.342;2023-02-12T07:02:26;101383.88;;;3.11;100.00
7333;BME280;3707;43.618;25.342;2023-02-12T07:04:53;101376.38;;;3.01;100.00
7333;BME280;3707;43.618;25.342;2023-02-12T07:07:21;101382.72;;;2.68;100.00
7333;BME280;3707;43.618;25.342;2023-02-12T07:09:48;101361.31;;;3.32;100.00
7333;BME280;3707;43.618;25.342;2023-02-12T07:12:15;101371.06;;;2.98;100.00
7333;BME280;3707;43.618;25.342;2023-02-12T07:14:41;101375.16;;;2.83;100.00
7333;BME280;3707;43.618;25.342;2023-02-12T07:17:08;101380.97;;;2.80;100.00
7333;BME280;3707;43.618;25.342;2023-02-12T07:19:35;101370.03;;;2.83;100.00
7333;BME280;3707;43.618;25.342;2023-02-12T07:22:02;101369.34;;;2.85;100.00
7333;BME280;3707;43.618;25.342;2023-02-12T07:24:31;101385.44;;;2.96;100.00
7333;BME280;3707;43.618;25.342;2023-02-12T07:26:57;101386.44;;;2.98;100.00
7333;BME280;3707;43.618;25.342;2023-02-12T07:29:24;101393.88;;;2.82;100.00
7333;BME280;3707;43.618;25.342;2023-02-12T07:31:51;101394.75;;;2.82;100.00
7333;BME280;3707;43.618;25.342;2023-02-12T07:34:18;101397.84;;;2.90;100.00
7333;BME280;3707;43.618;25.342;2023-02-12T07:36:44;101403.84;;;3.04;100.00
7333;BME280;3707;43.618;25.342;2023-02-12T07:39:11;101403.72;;;3.27;100.00
7333;BME280;3707;43.618;25.342;2023-02-12T07:41:40;101398.38;;;3.37;100.00
7333;BME280;3707;43.618;25.342;2023-02-12T07:44:09;101412.97;;;3.51;100.00
7333;BME280;3707;43.618;25.342;2023-02-12T07:46:38;101410.88;;;3.32;100.00
7333;BME280;3707;43.618;25.342;2023-02-12T07:49:06;101397.88;;;3.29;100.00
7333;BME280;3707;43.618;25.342;2023-02-12T07:51:36;101400.44;;;3.03;100.00
7333;BME280;3707;43.618;25.342;2023-02-12T07:54:03;101409.53;;;3.37;100.00
7333;BME280;3707;43.618;25.342;2023-02-12T07:56:32;101413.78;;;3.63;100.00
7333;BME280;3707;43.618;25.342;2023-02-12T07:59:03;101409.28;;;3.87;100.00
7333;BME280;3707;43.618;25.342;2023-02-12T08:01:31;101412.88;;;4.17;99.74
7333;BME280;3707;43.618;25.342;2023-02-12T08:04:00;101413.59;;;4.42;97.94
7333;BME280;3707;43.618;25.342;2023-02-12T08:06:29;101407.59;;;4.56;95.04
7333;BME280;3707;43.618;25.342;2023-02-12T08:08:58;101407.38;;;4.81;90.60
7333;BME280;3707;43.618;25.342;2023-02-12T08:11:26;101408.03;;;5.06;89.37
7333;BME280;3707;43.618;25.342;2023-02-12T08:13:53;101421.66;;;5.34;87.09
7333;BME280;3707;43.618;25.342;2023-02-12T08:16:24;101435.81;;;5.57;82.00
7333;BME280;3707;43.618;25.342;2023-02-12T08:18:51;101417.72;;;5.56;80.42
7333;BME280;3707;43.618;25.342;2023-02-12T08:21:20;101412.06;;;5.46;78.48
7333;BME280;3707;43.618;25.342;2023-02-12T08:23:47;101451.63;;;5.48;78.77
7333;BME280;3707;43.618;25.342;2023-02-12T08:26:16;101458.00;;;5.11;78.59
7333;BME280;3707;43.618;25.342;2023-02-12T08:28:46;101457.72;;;5.07;80.32
7333;BME280;3707;43.618;25.342;2023-02-12T08:31:14;101460.28;;;5.21;81.10
7333;BME280;3707;43.618;25.342;2023-02-12T08:33:45;101462.50;;;5.74;100.00
7333;BME280;3707;43.618;25.342;2023-02-12T08:36:14;101457.81;;;5.52;85.91
7333;BME280;3707;43.618;25.342;2023-02-12T08:38:43;101472.09;;;5.32;80.23
7333;BME280;3707;43.618;25.342;2023-02-12T08:41:11;101484.16;;;5.33;80.29
7333;BME280;3707;43.618;25.342;2023-02-12T08:43:39;101486.56;;;5.60;78.67
7333;BME280;3707;43.618;25.342;2023-02-12T08:46:08;101500.72;;;5.68;75.51
7333;BME280;3707;43.618;25.342;2023-02-12T08:48:35;101461.19;;;5.66;75.67
7333;BME280;3707;43.618;25.342;2023-02-12T08:51:06;101480.75;;;5.93;75.17
7333;BME280;3707;43.618;25.342;2023-02-12T08:53:33;101478.41;;;6.12;74.39
7333;BME280;3707;43.618;25.342;2023-02-12T08:56:00;101499.09;;;6.44;72.86
7333;BME280;3707;43.618;25.342;2023-02-12T08:58:27;101495.84;;;6.32;70.15
7333;BME280;3707;43.618;25.342;2023-02-12T09:00:54;101502.91;;;6.83;68.44
7333;BME280;3707;43.618;25.342;2023-02-12T09:03:20;101501.50;;;7.22;66.85
7333;BME280;3707;43.618;25.342;2023-02-12T09:05:47;101506.00;;;7.26;64.58
7333;BME280;3707;43.618;25.342;2023-02-12T09:08:15;101515.09;;;7.36;63.36
7333;BME280;3707;43.618;25.342;2023-02-12T09:10:43;101508.50;;;6.92;63.95
7333;BME280;3707;43.618;25.342;2023-02-12T09:13:11;101524.00;;;6.76;67.58
7333;BME280;3707;43.618;25.342;2023-02-12T09:15:39;101527.63;;;6.80;70.83
7333;BME280;3707;43.618;25.342;2023-02-12T09:18:06;101527.03;;;6.85;70.54
7333;BME280;3707;43.618;25.342;2023-02-12T09:20:36;101533.53;;;7.43;69.02
7333;BME280;3707;43.618;25.342;2023-02-12T09:23:04;101537.41;;;7.35;67.83
7333;BME280;3707;43.618;25.342;2023-02-12T09:25:33;101506.38;;;7.68;65.85
7333;BME280;3707;43.618;25.342;2023-02-12T09:28:00;101514.22;;;7.87;62.53
7333;BME280;3707;43.618;25.342;2023-02-12T09:30:27;101540.69;;;8.18;62.46
7333;BME280;3707;43.618;25.342;2023-02-12T09:32:54;101544.06;;;8.33;62.42
7333;BME280;3707;43.618;25.342;2023-02-12T09:35:21;101545.75;;;7.64;64.43
7333;BME280;3707;43.618;25.342;2023-02-12T09:37:48;101514.84;;;7.31;63.36
7333;BME280;3707;43.618;25.342;2023-02-12T09:40:17;101555.31;;;7.48;64.04
7333;BME280;3707;43.618;25.342;2023-02-12T09:43:11;101553.22;;;7.41;64.55
7333;BME280;3707;43.618;25.342;2023-02-12T09:45:45;101558.34;;;7.24;65.55
7333;BME280;3707;43.618;25.342;2023-02-12T09:48:28;101564.03;;;7.18;64.73
7333;BME280;3707;43.618;25.342;2023-02-12T09:50:59;101543.72;;;6.60;65.07
7333;BME280;3707;43.618;25.342;2023-02-12T09:53:30;101559.97;;;6.59;66.70
7333;BME280;3707;43.618;25.342;2023-02-12T09:55:57;101563.41;;;6.74;65.96
7333;BME280;3707;43.618;25.342;2023-02-12T09:58:32;101564.38;;;6.92;65.98
7333;BME280;3707;43.618;25.342;2023-02-12T10:01:00;101548.97;;;6.77;65.40
7333;BME280;3707;43.618;25.342;2023-02-12T10:03:29;101566.78;;;6.89;66.19
7333;BME280;3707;43.618;25.342;2023-02-12T10:06:00;101567.97;;;6.79;66.20
7333;BME280;3707;43.618;25.342;2023-02-12T10:08:47;101564.19;;;6.73;66.82
7333;BME280;3707;43.618;25.342;2023-02-12T10:11:28;101571.44;;;6.96;66.22
7333;BME280;3707;43.618;25.342;2023-02-12T10:14:08;101569.13;;;7.01;64.85
7333;BME280;3707;43.618;25.342;2023-02-12T10:16:48;101581.59;;;6.93;64.65
7333;BME280;3707;43.618;25.342;2023-02-12T10:19:30;101577.81;;;7.19;64.98
7333;BME280;3707;43.618;25.342;2023-02-12T10:22:06;101573.81;;;7.24;64.30
7333;BME280;3707;43.618;25.342;2023-02-12T10:24:50;101569.69;;;7.27;63.40
7333;BME280;3707;43.618;25.342;2023-02-12T10:27:27;101575.06;;;7.32;62.76
7333;BME280;3707;43.618;25.342;2023-02-12T10:30:03;101576.28;;;7.38;61.79
7333;BME280;3707;43.618;25.342;2023-02-12T10:32:34;101574.56;;;7.55;64.91
7333;BME280;3707;43.618;25.342;2023-02-12T10:35:12;101579.78;;;7.57;62.42
7333;BME280;3707;43.618;25.342;2023-02-12T10:37:43;101576.09;;;7.52;62.17
7333;BME280;3707;43.618;25.342;2023-02-12T10:40:17;101572.78;;;7.70;61.54
7333;BME280;3707;43.618;25.342;2023-02-12T10:42:47;101575.41;;;7.72;61.51
7333;BME280;3707;43.618;25.342;2023-02-12T10:45:19;101554.59;;;7.69;61.36
7333;BME280;3707;43.618;25.342;2023-02-12T10:47:47;101566.66;;;7.86;61.15
7333;BME280;3707;43.618;25.342;2023-02-12T10:50:19;101541.56;;;7.83;63.87
7333;BME280;3707;43.618;25.342;2023-02-12T10:52:52;101546.59;;;7.46;62.12
7333;BME280;3707;43.618;25.342;2023-02-12T10:55:27;101564.72;;;7.82;60.32
7333;BME280;3707;43.618;25.342;2023-02-12T10:57:55;101401.28;;;6.96;59.92
7333;BME280;3707;43.618;25.342;2023-02-12T11:00:27;101556.94;;;7.98;59.45
7333;BME280;3707;43.618;25.342;2023-02-12T11:03:19;101573.63;;;8.05;59.89
7333;BME280;3707;43.618;25.342;2023-02-12T11:05:47;101562.28;;;7.85;59.40
7333;BME280;3707;43.618;25.342;2023-02-12T11:08:29;101579.56;;;7.86;59.10
7333;BME280;3707;43.618;25.342;2023-02-12T11:11:02;101551.72;;;7.63;59.43
7333;BME280;3707;43.618;25.342;2023-02-12T11:13:30;101581.72;;;7.61;60.48
7333;BME280;3707;43.618;25.342;2023-02-12T11:15:59;101582.91;;;7.67;60.15
7333;BME280;3707;43.618;25.342;2023-02-12T11:18:28;101585.44;;;7.66;59.76
7333;BME280;3707;43.618;25.342;2023-02-12T11:20:59;101560.56;;;7.18;60.71
7333;BME280;3707;43.618;25.342;2023-02-12T11:23:28;101587.75;;;7.11;61.43
7333;BME280;3707;43.618;25.342;2023-02-12T11:25:58;101600.31;;;7.21;65.06
7333;BME280;3707;43.618;25.342;2023-02-12T11:28:25;101564.75;;;6.99;72.09
7333;BME280;3707;43.618;25.342;2023-02-12T11:30:55;101600.63;;;7.43;87.12
7333;BME280;3707;43.618;25.342;2023-02-12T11:33:28;101548.16;;;7.27;65.44
7333;BME280;3707;43.618;25.342;2023-02-12T11:35:57;101581.34;;;7.21;63.35
7333;BME280;3707;43.618;25.342;2023-02-12T11:38:31;101583.69;;;7.48;68.00
7333;BME280;3707;43.618;25.342;2023-02-12T11:43:49;101610.59;;;6.89;63.53
7333;BME280;3707;43.618;25.342;2023-02-12T11:46:28;101606.28;;;6.88;63.62
7333;BME280;3707;43.618;25.342;2023-02-12T11:49:20;101612.22;;;7.03;62.63
7333;BME280;3707;43.618;25.342;2023-02-12T11:51:48;101608.06;;;7.05;76.58
7333;BME280;3707;43.618;25.342;2023-02-12T11:54:19;101613.38;;;7.08;63.33
7333;BME280;3707;43.618;25.342;2023-02-12T11:56:47;101604.00;;;6.94;61.01
7333;BME280;3707;43.618;25.342;2023-02-12T11:59:28;101593.38;;;6.88;60.75
7333;BME280;3707;43.618;25.342;2023-02-12T12:01:58;101619.44;;;7.09;59.19
7333;BME280;3707;43.618;25.342;2023-02-12T12:04:29;101611.44;;;7.04;61.57
7333;BME280;3707;43.618;25.342;2023-02-12T12:07:01;101627.25;;;7.26;63.81
7333;BME280;3707;43.618;25.342;2023-02-12T12:09:35;101605.00;;;6.65;60.12
7333;BME280;3707;43.618;25.342;2023-02-12T12:12:09;101623.84;;;6.64;60.97
7333;BME280;3707;43.618;25.342;2023-02-12T12:14:41;101619.41;;;6.31;60.90
7333;BME280;3707;43.618;25.342;2023-02-12T12:17:27;101627.94;;;6.15;62.56
7333;BME280;3707;43.618;25.342;2023-02-12T12:20:21;101628.09;;;6.18;66.04
7333;BME280;3707;43.618;25.342;2023-02-12T12:22:53;101628.38;;;6.37;69.35
7333;BME280;3707;43.618;25.342;2023-02-12T12:25:26;101634.53;;;6.56;74.57
7333;BME280;3707;43.618;25.342;2023-02-12T12:27:59;101639.72;;;6.72;66.89
7333;BME280;3707;43.618;25.342;2023-02-12T12:30:39;101635.59;;;6.90;65.84
7333;BME280;3707;43.618;25.342;2023-02-12T12:33:14;101621.16;;;6.77;64.71
7333;BME280;3707;43.618;25.342;2023-02-12T12:35:50;101610.53;;;6.87;64.86
7333;BME280;3707;43.618;25.342;2023-02-12T12:38:27;101640.13;;;6.94;64.44
7333;BME280;3707;43.618;25.342;2023-02-12T12:41:03;101631.66;;;6.96;64.41
7333;BME280;3707;43.618;25.342;2023-02-12T12:43:43;101632.72;;;7.16;63.76
7333;BME280;3707;43.618;25.342;2023-02-12T12:46:27;101637.81;;;7.47;63.40
7333;BME280;3707;43.618;25.342;2023-02-12T12:49:16;101628.25;;;7.78;62.11
7333;BME280;3707;43.618;25.342;2023-02-12T12:52:02;101631.44;;;7.90;61.60
7333;BME280;3707;43.618;25.342;2023-02-12T12:54:46;101621.38;;;7.95;60.77
7333;BME280;3707;43.618;25.342;2023-02-12T12:57:21;101609.66;;;7.85;60.67
7333;BME280;3707;43.618;25.342;2023-02-12T13:00:02;101638.06;;;8.02;59.77
7333;BME280;3707;43.618;25.342;2023-02-12T13:02:58;101643.75;;;8.12;59.54
7333;BME280;3707;43.618;25.342;2023-02-12T13:05:51;101639.09;;;8.05;58.39
7333;BME280;3707;43.618;25.342;2023-02-12T13:08:32;101647.50;;;8.01;58.46
7333;BME280;3707;43.618;25.342;2023-02-12T13:11:13;101654.88;;;7.61;60.05
7333;BME280;3707;43.618;25.342;2023-02-12T13:13:45;101669.75;;;7.49;61.35
7333;BME280;3707;43.618;25.342;2023-02-12T13:16:17;101664.50;;;7.47;62.36
7333;BME280;3707;43.618;25.342;2023-02-12T13:18:53;101677.25;;;7.44;62.24
7333;BME280;3707;43.618;25.342;2023-02-12T13:21:33;101675.28;;;7.24;63.67
7333;BME280;3707;43.618;25.342;2023-02-12T13:24:15;101680.78;;;7.46;63.13
7333;BME280;3707;43.618;25.342;2023-02-12T13:26:48;101678.84;;;7.42;63.19
7333;BME280;3707;43.618;25.342;2023-02-12T13:29:19;101691.81;;;7.12;63.06
7333;BME280;3707;43.618;25.342;2023-02-12T13:31:48;101691.91;;;7.29;61.83
7333;BME280;3707;43.618;25.342;2023-02-12T13:34:17;101691.09;;;7.30;61.75
7333;BME280;3707;43.618;25.342;2023-02-12T13:36:44;101694.63;;;7.32;62.21